Strona główna
METAR-TAF:

METAR-TAF

Lotnisko :

Port lotniczy Damaszek

Damaszek, Syria

Szerokość geograficzna: 33-25N, Długość geograficzna: 036-31E, wysokość: 608 m

Aktualna obserwacja pogody

Raport powstał 12 minut temu, godzina 23:00 UTC
Wiatr 12 kt od południowy zachód
Temperatura 6°C
Wilgotność 93%
Ciśnienie 1022 hPa

METAR: OSDI 192300Z 22012KT 1500BR 06/05 Q1022

czas: 01:12 (23:12 UTC)

Prognoza

Raport powstał 19 godziny i 12 minut temu, godzina 04:00 UTC
Prognoza ważna od 19 godzina 06 UTC do 20 godzina 12 UTC
Wiatr 3 kt z kierunków zmiennych
Widzialność: 0200 m
Rozproszone chmury na wysokości 700 ft
mgła
Stopniowe zmiany
od 19 godzina 07 UTC do 19 godzina 09 UTC
Wiatr 3 kt z kierunków zmiennych
Widzialność: 3000 m
zamglenie
Stopniowe zmiany
od 19 godzina 09 UTC do 19 godzina 11 UTC
Wiatr 10 kt od południowy zachód
Widzialność: 8000 m
Mało chmury na wysokości 3000 ft

TAF: OSDI 190400Z 1906/2012 VRB03KT 0200 FG SCT007 BECMG 1907/1909 VRB03KT 3000 BR BECMG 1909/1911 22010KT 8000 FEW030

Obserwacja i prognoza pogody dla ponad 4000 lotnisk (raport METAR i TAF).

Dostępne stacje oznaczono żółtymi i czerwonymi punktami na mapie.

Najedź kursorem aby zobaczyć nazwę stacji.

Kliknij aby zobaczyć obserwacje i prognozy pogody.

Aby zmienić mapę: kliknij na zielony przycisk z czarnym krzyżykiem, aby powiększyć; na zielony przycisk z myślnikiem, aby pomniejszyć; na zielone strzałki, aby przejść do map sąsiednich.


METAR-TAF: